Airfield :
LOGIN :

Register | Disclaimer

   EN    FR    IT 

 










Legend :    VFR   Marginal VFR   IFR   Intensive IFR   Very Intensive IFR
Visi :
Ceiling :
>= 8 km
>= 3000ft
5 to 8 km
1000 to 3000 ft
1500m to 5 km
500 to 1000 ft
800 to 1500m
200 to 500 ft
< 800m
< 200 ft
Symbols :   Thunderstorms  Fog  Heavy snow  Heavy precipitations  Wind > 20 kt
SIGMETs :     Misc.  Thunderstorms  Icing  Turbulence  Mountain Waves  Volcanic Ashes






- Airport Elevation : 233 ft
- IATA code : REU


LERS - Reus Tarragona

CURRENT METAR :
  • 280000Z AUTO 02003KT CAVOK 18/16 Q1017

EXPIRED METARs :
  • 272330Z AUTO 00000KT CAVOK 19/17 Q1017
  • 272300Z AUTO 01002KT CAVOK 19/18 Q1017
  • 272230Z AUTO VRB02KT CAVOK 19/19 Q1017
  • 272200Z VRB01KT 9999 FEW050 20/18 Q1017
  • 272130Z 01003KT 9999 FEW050 20/18 Q1018

TAF TAF LERS
Valid from the 27 at 21:00 until the 28 at 21:00 UTC


272000Z 2721/2821 VRB04KT 9999 FEW050 TX32/2812Z TN17/2806Z
TEMPO 2802/2806 33010KT
BECMG 2810/2813 22011KT



MET'MAP, your aeronautical weather chart ! - Copyright ORBIFLY December 2007 - Disclaimer

ORBIFLY MET'MAP TEAM :

Programming & Development : Alexandra Zaïnal
Original concept : Baudouin d'Aumeries
Technical & hardware support : Manuel Goepfert
Assistance : Marc-Olivier Méhu

Contact : metmap@orbifly.com




SOURCES & CREDITS :

   NOAA